»·PEaware :: N42ZB MMES-KSBA

N42ZB :: MMES-KSBA

FLIGHT INFORMATION

Flight Status: Arrived
Operator: Privately registered:
United States
More flights under this callsign
Pilot: Zachary B. (2432)
Aircraft: PILATUS PC-12 EAGLE
(PC12)
More flights by this aircraft type
Origin: MMES Ensenada Intl
Mexico
Destination: KSBA Santa Barbara Mun
United States
More flights between these airports :: More routes between these airports
Route: ENS J1 FIM V386 RZS
File this flight plan on PilotEdge
Remarks: New airframe for PIC
Altitude:
(Current/Filed)
24,000ft
Speed:
(Current/Filed)
240kts
Departed: 31-Oct-18 04:42 PM
Arrived: 31-Oct-18 05:51 PM
Distance/Time
Traveled:
227nm/1:09
Distance/Time
To Go:
Arrived

Flight Plot

Page will automatically refresh every two minutes.

Flight plan parsing failed; only flown route is shown


Map Options




Map Legend


Flown Route
Filed Route
Departure Airport
Arrival Airport
Navaid (VOR, NDB)
Fix

Horizontal Profiles

Position Reports

Time Latitude Longitude Heading Altitude Ground
Speed
31-Oct-18 16:24 31.798033 -116.596366 139 57ft 0kts
31-Oct-18 16:25 31.798033 -116.596366 139 57ft 0kts
31-Oct-18 16:26 31.798033 -116.596366 139 57ft 0kts
31-Oct-18 16:27 31.798033 -116.596366 139 57ft 0kts
31-Oct-18 16:28 31.798033 -116.596366 139 57ft 0kts
31-Oct-18 16:29 31.798033 -116.596366 139 57ft 0kts
31-Oct-18 16:30 31.798033 -116.596366 139 57ft 0kts
31-Oct-18 16:31 31.798033 -116.596366 139 57ft 0kts
31-Oct-18 16:32 31.798033 -116.596366 139 57ft 0kts
31-Oct-18 16:33 31.798033 -116.596366 139 57ft 0kts
31-Oct-18 16:34 31.798033 -116.596366 139 57ft 0kts
31-Oct-18 16:35 31.798033 -116.596366 139 57ft 0kts
31-Oct-18 16:36 31.798033 -116.596366 139 57ft 0kts
31-Oct-18 16:37 31.798033 -116.596366 139 57ft 0kts
31-Oct-18 16:38 31.797479 -116.596273 166 58ft 0kts
31-Oct-18 16:39 31.797243 -116.596266 181 59ft 8kts
31-Oct-18 16:40 31.796889 -116.596328 197 59ft 0kts
31-Oct-18 16:41 31.795004 -116.596360 176 60ft 22kts
31-Oct-18 16:42 31.794418 -116.596347 177 60ft 0kts
31-Oct-18 16:43 31.792444 -116.596207 165 60ft 11kts
31-Oct-18 16:44 31.791836 -116.596658 299 60ft 17kts
31-Oct-18 16:45 31.807095 -116.626785 314 1606ft 133kts
31-Oct-18 16:46 31.840456 -116.636110 345 4018ft 163kts
31-Oct-18 16:47 31.883943 -116.653343 337 6586ft 171kts
31-Oct-18 16:48 31.928185 -116.674195 337 8796ft 176kts
31-Oct-18 16:49 31.974057 -116.695858 337 10794ft 181kts
31-Oct-18 16:50 32.021027 -116.718102 337 12301ft 186kts
31-Oct-18 16:51 32.069357 -116.740998 337 13783ft 192kts
31-Oct-18 16:52 32.118592 -116.764332 337 15615ft 195kts
31-Oct-18 16:53 32.169421 -116.785882 343 17350ft 201kts
31-Oct-18 16:54 32.220937 -116.807766 338 19442ft 187kts
31-Oct-18 16:55 32.266141 -116.829294 338 21318ft 180kts
31-Oct-18 16:56 32.313265 -116.851672 338 22827ft 186kts
31-Oct-18 16:57 32.361986 -116.874846 338 24056ft 196kts
31-Oct-18 16:58 32.414654 -116.899937 338 24079ft 220kts
31-Oct-18 16:59 32.474898 -116.895081 16 24084ft 243kts
31-Oct-18 17:00 32.529735 -116.929927 311 24077ft 247kts
31-Oct-18 17:01 32.573117 -116.992261 317 24074ft 245kts
31-Oct-18 17:02 32.620497 -117.049151 332 24045ft 243kts
31-Oct-18 17:03 32.671358 -117.094872 305 24048ft 248kts
31-Oct-18 17:04 32.710796 -117.160827 311 24045ft 243kts
31-Oct-18 17:05 32.752422 -117.222898 325 24039ft 237kts
31-Oct-18 17:06 32.811180 -117.255628 340 24044ft 235kts
31-Oct-18 17:07 32.873951 -117.275800 347 24044ft 234kts
31-Oct-18 17:08 32.938275 -117.279702 8 24047ft 238kts
31-Oct-18 17:09 32.996721 -117.309398 328 24044ft 235kts
31-Oct-18 17:10 33.041423 -117.363816 333 24047ft 234kts
31-Oct-18 17:11 33.104250 -117.379215 354 24045ft 235kts
31-Oct-18 17:12 33.163617 -117.388632 340 24054ft 235kts
31-Oct-18 17:12 33.213976 -117.411525 339 24049ft 235kts
31-Oct-18 17:14 33.276000 -117.460537 299 24060ft 243kts
31-Oct-18 17:15 33.313301 -117.526301 313 24048ft 239kts
31-Oct-18 17:16 33.355528 -117.587410 312 24048ft 240kts
31-Oct-18 17:16 33.390420 -117.638870 312 24047ft 240kts
31-Oct-18 17:18 33.437673 -117.710636 311 24049ft 240kts
31-Oct-18 17:18 33.469458 -117.764057 305 24049ft 242kts
31-Oct-18 17:19 33.514372 -117.821327 316 24049ft 239kts
31-Oct-18 17:20 33.558409 -117.880919 313 24048ft 240kts
31-Oct-18 17:21 33.600951 -117.942194 312 24047ft 240kts
31-Oct-18 17:22 33.643157 -118.003924 312 24047ft 240kts
31-Oct-18 17:23 33.685271 -118.065815 312 24046ft 240kts
31-Oct-18 17:24 33.727335 -118.127786 312 24046ft 240kts
31-Oct-18 17:25 33.769491 -118.190001 312 24045ft 240kts
31-Oct-18 17:26 33.805670 -118.257359 305 24045ft 242kts
31-Oct-18 17:27 33.840845 -118.325717 309 24043ft 241kts
31-Oct-18 17:28 33.882618 -118.387734 315 24044ft 239kts
31-Oct-18 17:29 33.931814 -118.439856 323 23964ft 236kts
31-Oct-18 17:30 33.982081 -118.490028 322 23457ft 232kts
31-Oct-18 17:31 34.030645 -118.540019 322 22261ft 230kts
31-Oct-18 17:32 34.078541 -118.589813 322 21207ft 227kts
31-Oct-18 17:33 34.125139 -118.637955 322 20132ft 221kts
31-Oct-18 17:34 34.170300 -118.685686 321 18700ft 217kts
31-Oct-18 17:35 34.214316 -118.731974 322 16535ft 210kts
31-Oct-18 17:36 34.255852 -118.779300 319 14285ft 203kts
31-Oct-18 17:37 34.296913 -118.826667 319 13993ft 219kts
31-Oct-18 17:38 34.342661 -118.878605 319 13994ft 231kts
31-Oct-18 17:39 34.368202 -118.946488 277 13551ft 247kts
31-Oct-18 17:40 34.379855 -119.026196 289 13002ft 239kts
31-Oct-18 17:41 34.394917 -119.103943 287 12434ft 237kts
31-Oct-18 17:42 34.408852 -119.182175 287 11858ft 237kts
31-Oct-18 17:43 34.400427 -119.258227 256 10044ft 236kts
31-Oct-18 17:44 34.381849 -119.332541 256 9280ft 230kts
31-Oct-18 17:45 34.372464 -119.408621 271 8269ft 237kts
31-Oct-18 17:46 34.375215 -119.487217 278 7578ft 233kts
31-Oct-18 17:47 34.387477 -119.562477 293 6141ft 227kts
31-Oct-18 17:48 34.411503 -119.631495 287 4515ft 210kts
31-Oct-18 17:49 34.422799 -119.697625 279 3412ft 178kts
31-Oct-18 17:50 34.426647 -119.752870 264 2578ft 156kts
31-Oct-18 17:51 34.428229 -119.798765 270 1353ft 125kts
31-Oct-18 17:52 34.427852 -119.838164 267 31ft 93kts
31-Oct-18 17:53 34.428930 -119.844423 66 16ft 24kts
31-Oct-18 17:54 34.431507 -119.837246 65 16ft 17kts

Navigation Log

Ident Type
Flight plan parsing failed, navigation log unavailable